sensor_id;sensor_type;location;lat;lon;timestamp;temperature;humidity
15481;DHT22;7842;50.904;6.670;2023-04-06T00:01:47;3.00;99.90
15481;DHT22;7842;50.904;6.670;2023-04-06T00:04:16;2.90;99.90
15481;DHT22;7842;50.904;6.670;2023-04-06T00:06:41;2.80;99.90
15481;DHT22;7842;50.904;6.670;2023-04-06T00:09:07;4.20;99.90
15481;DHT22;7842;50.904;6.670;2023-04-06T00:11:33;2.80;99.90
15481;DHT22;7842;50.904;6.670;2023-04-06T00:13:59;3.40;99.90
15481;DHT22;7842;50.904;6.670;2023-04-06T00:16:25;4.00;99.90
15481;DHT22;7842;50.904;6.670;2023-04-06T00:18:51;2.80;99.90
15481;DHT22;7842;50.904;6.670;2023-04-06T00:21:17;2.80;99.90
15481;DHT22;7842;50.904;6.670;2023-04-06T00:23:43;3.80;99.90
15481;DHT22;7842;50.904;6.670;2023-04-06T00:26:08;2.80;99.90
15481;DHT22;7842;50.904;6.670;2023-04-06T00:28:37;3.00;99.90
15481;DHT22;7842;50.904;6.670;2023-04-06T00:31:03;4.00;99.90
15481;DHT22;7842;50.904;6.670;2023-04-06T00:33:29;2.90;99.90
15481;DHT22;7842;50.904;6.670;2023-04-06T00:35:54;2.80;99.90
15481;DHT22;7842;50.904;6.670;2023-04-06T00:38:21;2.70;99.90
15481;DHT22;7842;50.904;6.670;2023-04-06T00:40:47;2.70;99.90
15481;DHT22;7842;50.904;6.670;2023-04-06T00:43:13;4.30;99.90
15481;DHT22;7842;50.904;6.670;2023-04-06T00:45:40;2.60;99.90
15481;DHT22;7842;50.904;6.670;2023-04-06T00:48:06;2.50;99.90
15481;DHT22;7842;50.904;6.670;2023-04-06T00:50:32;2.50;99.90
15481;DHT22;7842;50.904;6.670;2023-04-06T00:53:01;2.60;99.90
15481;DHT22;7842;50.904;6.670;2023-04-06T00:55:28;2.50;99.90
15481;DHT22;7842;50.904;6.670;2023-04-06T00:57:54;2.40;99.90
15481;DHT22;7842;50.904;6.670;2023-04-06T01:00:20;2.40;99.90
15481;DHT22;7842;50.904;6.670;2023-04-06T01:02:46;2.30;99.90
15481;DHT22;7842;50.904;6.670;2023-04-06T01:05:13;2.30;99.90
15481;DHT22;7842;50.904;6.670;2023-04-06T01:07:39;2.40;99.90
15481;DHT22;7842;50.904;6.670;2023-04-06T01:10:05;2.40;99.90
15481;DHT22;7842;50.904;6.670;2023-04-06T01:12:30;2.50;99.90
15481;DHT22;7842;50.904;6.670;2023-04-06T01:14:56;2.50;99.90
15481;DHT22;7842;50.904;6.670;2023-04-06T01:17:22;2.60;99.90
15481;DHT22;7842;50.904;6.670;2023-04-06T01:19:47;2.70;99.90
15481;DHT22;7842;50.904;6.670;2023-04-06T01:22:18;2.60;99.90
15481;DHT22;7842;50.904;6.670;2023-04-06T01:24:44;2.60;99.90
15481;DHT22;7842;50.904;6.670;2023-04-06T01:27:10;2.50;99.90
15481;DHT22;7842;50.904;6.670;2023-04-06T01:29:36;2.40;99.90
15481;DHT22;7842;50.904;6.670;2023-04-06T01:32:02;4.60;99.90
15481;DHT22;7842;50.904;6.670;2023-04-06T01:34:28;2.00;99.90
15481;DHT22;7842;50.904;6.670;2023-04-06T01:36:54;2.00;99.90
15481;DHT22;7842;50.904;6.670;2023-04-06T01:39:20;2.00;99.90
15481;DHT22;7842;50.904;6.670;2023-04-06T01:41:45;3.60;99.90
15481;DHT22;7842;50.904;6.670;2023-04-06T01:44:17;2.00;99.90
15481;DHT22;7842;50.904;6.670;2023-04-06T01:51:35;2.30;99.90
15481;DHT22;7842;50.904;6.670;2023-04-06T01:54:01;2.40;99.90
15481;DHT22;7842;50.904;6.670;2023-04-06T02:15:55;1.90;99.90
15481;DHT22;7842;50.904;6.670;2023-04-06T02:18:21;1.80;99.90
15481;DHT22;7842;50.904;6.670;2023-04-06T02:20:46;1.90;99.90
15481;DHT22;7842;50.904;6.670;2023-04-06T02:33:01;1.90;99.90
15481;DHT22;7842;50.904;6.670;2023-04-06T02:47:38;1.70;99.90
15481;DHT22;7842;50.904;6.670;2023-04-06T02:50:05;1.90;99.90
15481;DHT22;7842;50.904;6.670;2023-04-06T02:54:56;2.00;99.90
15481;DHT22;7842;50.904;6.670;2023-04-06T02:59:48;2.00;99.90
15481;DHT22;7842;50.904;6.670;2023-04-06T03:09:32;1.80;99.90
15481;DHT22;7842;50.904;6.670;2023-04-06T03:14:23;1.70;99.90
15481;DHT22;7842;50.904;6.670;2023-04-06T03:16:49;1.70;99.90
15481;DHT22;7842;50.904;6.670;2023-04-06T03:26:33;1.70;99.90
15481;DHT22;7842;50.904;6.670;2023-04-06T03:29:00;1.70;99.90
15481;DHT22;7842;50.904;6.670;2023-04-06T03:36:18;1.90;99.90
15481;DHT22;7842;50.904;6.670;2023-04-06T03:46:02;1.70;99.90
15481;DHT22;7842;50.904;6.670;2023-04-06T03:48:30;1.70;99.90
15481;DHT22;7842;50.904;6.670;2023-04-06T03:50:56;1.70;99.90
15481;DHT22;7842;50.904;6.670;2023-04-06T03:53:22;1.70;99.90
15481;DHT22;7842;50.904;6.670;2023-04-06T03:58:13;1.60;99.90
15481;DHT22;7842;50.904;6.670;2023-04-06T04:00:39;1.80;99.90
15481;DHT22;7842;50.904;6.670;2023-04-06T04:07:57;1.60;99.90
15481;DHT22;7842;50.904;6.670;2023-04-06T04:10:22;1.60;99.90
15481;DHT22;7842;50.904;6.670;2023-04-06T04:12:48;1.60;99.90
15481;DHT22;7842;50.904;6.670;2023-04-06T04:15:13;1.60;99.90
15481;DHT22;7842;50.904;6.670;2023-04-06T04:17:39;1.60;99.90
15481;DHT22;7842;50.904;6.670;2023-04-06T04:22:31;1.50;99.90
15481;DHT22;7842;50.904;6.670;2023-04-06T04:27:24;1.50;99.90
15481;DHT22;7842;50.904;6.670;2023-04-06T04:46:52;1.60;99.90
15481;DHT22;7842;50.904;6.670;2023-04-06T04:56:36;1.50;99.90
15481;DHT22;7842;50.904;6.670;2023-04-06T04:59:01;1.50;99.90
15481;DHT22;7842;50.904;6.670;2023-04-06T05:01:27;1.60;99.90
15481;DHT22;7842;50.904;6.670;2023-04-06T05:11:11;1.80;99.90
15481;DHT22;7842;50.904;6.670;2023-04-06T05:33:06;4.00;99.90
15481;DHT22;7842;50.904;6.670;2023-04-06T05:35:32;4.50;99.90
15481;DHT22;7842;50.904;6.670;2023-04-06T05:40:24;5.00;99.90
15481;DHT22;7842;50.904;6.670;2023-04-06T05:42:49;5.10;99.90
15481;DHT22;7842;50.904;6.670;2023-04-06T05:45:15;5.60;99.90
15481;DHT22;7842;50.904;6.670;2023-04-06T05:47:44;6.00;99.90
15481;DHT22;7842;50.904;6.670;2023-04-06T05:50:11;6.10;99.90
15481;DHT22;7842;50.904;6.670;2023-04-06T05:52:37;6.10;99.90
15481;DHT22;7842;50.904;6.670;2023-04-06T06:02:21;7.00;99.90
15481;DHT22;7842;50.904;6.670;2023-04-06T06:04:47;7.20;99.90
15481;DHT22;7842;50.904;6.670;2023-04-06T06:07:14;7.50;99.90
15481;DHT22;7842;50.904;6.670;2023-04-06T06:09:40;7.80;99.90
15481;DHT22;7842;50.904;6.670;2023-04-06T06:12:06;7.60;99.90
15481;DHT22;7842;50.904;6.670;2023-04-06T06:24:18;7.30;99.90
15481;DHT22;7842;50.904;6.670;2023-04-06T06:26:43;7.10;99.90
15481;DHT22;7842;50.904;6.670;2023-04-06T06:34:01;8.40;99.90
15481;DHT22;7842;50.904;6.670;2023-04-06T06:36:27;8.50;99.90
15481;DHT22;7842;50.904;6.670;2023-04-06T06:41:19;7.80;99.90
15481;DHT22;7842;50.904;6.670;2023-04-06T06:53:29;6.80;99.90
15481;DHT22;7842;50.904;6.670;2023-04-06T06:55:55;6.80;99.90
15481;DHT22;7842;50.904;6.670;2023-04-06T06:58:21;6.90;99.90
15481;DHT22;7842;50.904;6.670;2023-04-06T07:00:47;6.90;99.90
15481;DHT22;7842;50.904;6.670;2023-04-06T07:03:12;6.90;99.90
15481;DHT22;7842;50.904;6.670;2023-04-06T07:05:38;6.90;99.90
15481;DHT22;7842;50.904;6.670;2023-04-06T07:08:04;7.00;99.90
15481;DHT22;7842;50.904;6.670;2023-04-06T07:12:56;6.80;99.90
15481;DHT22;7842;50.904;6.670;2023-04-06T07:15:22;7.10;99.90
15481;DHT22;7842;50.904;6.670;2023-04-06T07:17:48;7.40;99.90
15481;DHT22;7842;50.904;6.670;2023-04-06T07:20:14;7.40;99.90
15481;DHT22;7842;50.904;6.670;2023-04-06T07:22:42;7.40;99.90
15481;DHT22;7842;50.904;6.670;2023-04-06T07:25:08;7.50;99.90
15481;DHT22;7842;50.904;6.670;2023-04-06T07:27:34;7.70;99.90
15481;DHT22;7842;50.904;6.670;2023-04-06T07:29:59;7.60;99.90
15481;DHT22;7842;50.904;6.670;2023-04-06T07:32:25;7.90;99.90
15481;DHT22;7842;50.904;6.670;2023-04-06T07:34:51;8.10;99.90
15481;DHT22;7842;50.904;6.670;2023-04-06T07:37:17;8.30;99.90
15481;DHT22;7842;50.904;6.670;2023-04-06T07:39:42;8.50;99.90
15481;DHT22;7842;50.904;6.670;2023-04-06T07:42:08;8.70;99.90
15481;DHT22;7842;50.904;6.670;2023-04-06T07:44:33;8.80;99.90
15481;DHT22;7842;50.904;6.670;2023-04-06T07:49:27;9.00;99.90
15481;DHT22;7842;50.904;6.670;2023-04-06T07:51:54;12.00;99.90
15481;DHT22;7842;50.904;6.670;2023-04-06T07:54:19;9.30;99.90
15481;DHT22;7842;50.904;6.670;2023-04-06T07:56:45;9.40;99.90
15481;DHT22;7842;50.904;6.670;2023-04-06T07:59:11;9.40;99.90
15481;DHT22;7842;50.904;6.670;2023-04-06T08:01:37;9.30;99.90
15481;DHT22;7842;50.904;6.670;2023-04-06T08:04:03;9.60;99.90
15481;DHT22;7842;50.904;6.670;2023-04-06T08:06:29;9.60;99.90
15481;DHT22;7842;50.904;6.670;2023-04-06T08:08:54;9.60;99.90
15481;DHT22;7842;50.904;6.670;2023-04-06T08:11:20;9.80;99.90
15481;DHT22;7842;50.904;6.670;2023-04-06T08:13:46;10.00;99.90
15481;DHT22;7842;50.904;6.670;2023-04-06T08:16:11;10.10;99.90
15481;DHT22;7842;50.904;6.670;2023-04-06T08:18:37;10.10;99.90
15481;DHT22;7842;50.904;6.670;2023-04-06T08:21:03;10.20;99.90
15481;DHT22;7842;50.904;6.670;2023-04-06T08:23:28;10.50;99.90
15481;DHT22;7842;50.904;6.670;2023-04-06T08:25:54;10.30;99.90
15481;DHT22;7842;50.904;6.670;2023-04-06T08:28:21;10.50;99.90
15481;DHT22;7842;50.904;6.670;2023-04-06T08:30:47;10.30;99.90
15481;DHT22;7842;50.904;6.670;2023-04-06T08:33:12;10.70;99.90
15481;DHT22;7842;50.904;6.670;2023-04-06T08:35:38;11.00;99.90
15481;DHT22;7842;50.904;6.670;2023-04-06T08:38:04;11.20;99.90
15481;DHT22;7842;50.904;6.670;2023-04-06T08:40:30;11.50;99.90
15481;DHT22;7842;50.904;6.670;2023-04-06T08:42:56;11.70;99.90
15481;DHT22;7842;50.904;6.670;2023-04-06T08:45:25;11.60;99.90
15481;DHT22;7842;50.904;6.670;2023-04-06T08:47:51;11.30;99.90
15481;DHT22;7842;50.904;6.670;2023-04-06T08:50:20;11.30;99.90
15481;DHT22;7842;50.904;6.670;2023-04-06T08:52:47;11.30;99.90
15481;DHT22;7842;50.904;6.670;2023-04-06T08:55:14;11.40;99.90
15481;DHT22;7842;50.904;6.670;2023-04-06T08:57:40;11.50;99.90
15481;DHT22;7842;50.904;6.670;2023-04-06T09:00:07;11.50;99.90
15481;DHT22;7842;50.904;6.670;2023-04-06T09:02:38;11.60;99.90
15481;DHT22;7842;50.904;6.670;2023-04-06T09:05:04;11.70;99.90
15481;DHT22;7842;50.904;6.670;2023-04-06T09:07:30;11.90;99.90
15481;DHT22;7842;50.904;6.670;2023-04-06T09:09:56;12.20;99.90
15481;DHT22;7842;50.904;6.670;2023-04-06T09:12:29;12.30;99.90
15481;DHT22;7842;50.904;6.670;2023-04-06T09:14:56;12.30;99.90
15481;DHT22;7842;50.904;6.670;2023-04-06T09:17:24;12.40;99.90
15481;DHT22;7842;50.904;6.670;2023-04-06T09:19:50;12.20;99.90
15481;DHT22;7842;50.904;6.670;2023-04-06T09:22:16;12.20;99.90
15481;DHT22;7842;50.904;6.670;2023-04-06T09:24:46;12.10;99.90
15481;DHT22;7842;50.904;6.670;2023-04-06T09:27:13;12.20;99.90
15481;DHT22;7842;50.904;6.670;2023-04-06T09:29:38;12.40;99.90
15481;DHT22;7842;50.904;6.670;2023-04-06T09:32:05;12.40;99.90
15481;DHT22;7842;50.904;6.670;2023-04-06T09:34:32;12.40;99.90
15481;DHT22;7842;50.904;6.670;2023-04-06T09:36:58;12.30;99.90
15481;DHT22;7842;50.904;6.670;2023-04-06T09:39:24;12.30;99.90
15481;DHT22;7842;50.904;6.670;2023-04-06T09:41:51;12.50;99.90
15481;DHT22;7842;50.904;6.670;2023-04-06T09:44:17;12.60;99.90
15481;DHT22;7842;50.904;6.670;2023-04-06T09:46:45;12.70;99.90
15481;DHT22;7842;50.904;6.670;2023-04-06T09:49:12;12.80;99.90
15481;DHT22;7842;50.904;6.670;2023-04-06T09:54:06;13.00;99.90
15481;DHT22;7842;50.904;6.670;2023-04-06T09:56:50;13.00;99.90
15481;DHT22;7842;50.904;6.670;2023-04-06T10:01:56;13.30;99.90
15481;DHT22;7842;50.904;6.670;2023-04-06T10:04:58;13.20;99.90
15481;DHT22;7842;50.904;6.670;2023-04-06T10:07:28;13.30;99.90
15481;DHT22;7842;50.904;6.670;2023-04-06T10:09:54;13.30;99.90
15481;DHT22;7842;50.904;6.670;2023-04-06T10:12:20;13.30;99.90
15481;DHT22;7842;50.904;6.670;2023-04-06T10:14:46;13.40;99.90
15481;DHT22;7842;50.904;6.670;2023-04-06T10:17:12;13.50;99.90
15481;DHT22;7842;50.904;6.670;2023-04-06T10:19:55;13.30;99.90
15481;DHT22;7842;50.904;6.670;2023-04-06T10:22:35;13.50;99.90
15481;DHT22;7842;50.904;6.670;2023-04-06T10:25:02;13.70;99.90
15481;DHT22;7842;50.904;6.670;2023-04-06T10:27:29;13.80;99.90
15481;DHT22;7842;50.904;6.670;2023-04-06T10:30:04;13.40;99.90
15481;DHT22;7842;50.904;6.670;2023-04-06T10:32:37;13.30;99.90
15481;DHT22;7842;50.904;6.670;2023-04-06T10:35:11;13.40;99.90
15481;DHT22;7842;50.904;6.670;2023-04-06T10:37:51;13.40;99.90
15481;DHT22;7842;50.904;6.670;2023-04-06T10:40:19;13.50;99.90
15481;DHT22;7842;50.904;6.670;2023-04-06T10:42:45;13.70;99.90
15481;DHT22;7842;50.904;6.670;2023-04-06T10:45:31;13.70;99.90
15481;DHT22;7842;50.904;6.670;2023-04-06T10:47:56;13.60;99.90
15481;DHT22;7842;50.904;6.670;2023-04-06T10:50:23;13.70;99.90
15481;DHT22;7842;50.904;6.670;2023-04-06T10:52:59;13.40;99.90
15481;DHT22;7842;50.904;6.670;2023-04-06T10:55:27;13.10;99.90
15481;DHT22;7842;50.904;6.670;2023-04-06T11:02:46;12.90;99.90
15481;DHT22;7842;50.904;6.670;2023-04-06T11:05:13;12.90;99.90
15481;DHT22;7842;50.904;6.670;2023-04-06T11:10:06;12.90;99.90
15481;DHT22;7842;50.904;6.670;2023-04-06T11:14:59;13.00;99.90
15481;DHT22;7842;50.904;6.670;2023-04-06T13:00:55;12.70;99.90
15481;DHT22;7842;50.904;6.670;2023-04-06T14:02:05;11.70;99.90
15481;DHT22;7842;50.904;6.670;2023-04-06T14:06:58;11.50;99.90
15481;DHT22;7842;50.904;6.670;2023-04-06T14:58:19;10.00;99.90
15481;DHT22;7842;50.904;6.670;2023-04-06T18:48:38;7.80;99.90
15481;DHT22;7842;50.904;6.670;2023-04-06T19:23:09;7.80;99.90
15481;DHT22;7842;50.904;6.670;2023-04-06T20:41:26;8.10;99.90
15481;DHT22;7842;50.904;6.670;2023-04-06T21:33:05;8.20;99.90
15481;DHT22;7842;50.904;6.670;2023-04-06T21:38:07;8.20;99.90
15481;DHT22;7842;50.904;6.670;2023-04-06T22:00:11;8.50;99.90
15481;DHT22;7842;50.904;6.670;2023-04-06T22:12:26;8.50;99.90
15481;DHT22;7842;50.904;6.670;2023-04-06T22:29:28;8.50;99.90
15481;DHT22;7842;50.904;6.670;2023-04-06T22:34:20;8.50;99.90
15481;DHT22;7842;50.904;6.670;2023-04-06T22:44:07;8.60;99.90
15481;DHT22;7842;50.904;6.670;2023-04-06T22:46:33;8.60;99.90
15481;DHT22;7842;50.904;6.670;2023-04-06T22:58:45;8.70;99.90
15481;DHT22;7842;50.904;6.670;2023-04-06T23:18:18;8.70;99.90
15481;DHT22;7842;50.904;6.670;2023-04-06T23:37:49;8.80;99.90
